createdAt,value
2023-04-29T00:01:03.644Z,100.00
2023-04-29T00:03:32.661Z,100.00
2023-04-29T00:06:00.295Z,100.00
2023-04-29T00:08:27.344Z,100.00
2023-04-29T00:10:54.106Z,100.00
2023-04-29T00:13:21.312Z,100.00
2023-04-29T00:15:50.348Z,100.00
2023-04-29T00:18:16.924Z,100.00
2023-04-29T00:20:43.896Z,100.00
2023-04-29T00:23:11.191Z,100.00
2023-04-29T00:25:38.865Z,100.00
2023-04-29T00:28:06.205Z,100.00
2023-04-29T00:30:34.586Z,100.00
2023-04-29T00:33:01.325Z,100.00
2023-04-29T00:35:27.931Z,100.00
2023-04-29T00:37:54.551Z,100.00
2023-04-29T00:40:21.304Z,99.96
2023-04-29T00:42:47.900Z,100.00
2023-04-29T00:45:14.506Z,100.00
2023-04-29T00:47:42.014Z,99.96
2023-04-29T00:50:09.232Z,99.21
2023-04-29T00:52:37.691Z,99.03
2023-04-29T00:55:06.429Z,99.66
2023-04-29T00:57:34.636Z,99.54
2023-04-29T01:00:01.477Z,99.78
2023-04-29T01:02:28.925Z,100.00
2023-04-29T01:04:55.736Z,100.00
2023-04-29T01:07:48.794Z,100.00
2023-04-29T01:10:22.851Z,100.00
2023-04-29T01:13:06.957Z,100.00
2023-04-29T01:15:42.163Z,100.00
2023-04-29T01:18:26.396Z,99.57
2023-04-29T01:20:53.785Z,99.65
2023-04-29T01:23:20.506Z,99.89
2023-04-29T01:25:48.966Z,99.67
2023-04-29T01:28:54.691Z,97.80
2023-04-29T01:31:45.170Z,98.23
2023-04-29T01:34:16.914Z,98.03
2023-04-29T01:37:29.423Z,98.25
2023-04-29T01:40:10.256Z,98.14
2023-04-29T01:42:43.077Z,98.21
2023-04-29T01:45:11.390Z,97.68
2023-04-29T01:47:39.293Z,96.94
2023-04-29T01:50:06.706Z,95.02
2023-04-29T01:52:33.266Z,94.94
2023-04-29T01:54:59.803Z,92.78
2023-04-29T01:57:26.434Z,92.18
2023-04-29T01:59:53.197Z,91.65
2023-04-29T02:02:23.555Z,91.51
2023-04-29T02:04:50.765Z,90.82
2023-04-29T02:07:17.662Z,89.81
2023-04-29T02:09:44.261Z,88.59
2023-04-29T02:12:10.850Z,89.01
2023-04-29T02:14:37.893Z,87.47
2023-04-29T02:17:04.719Z,86.62
2023-04-29T02:19:31.329Z,87.32
2023-04-29T02:21:57.905Z,86.31
2023-04-29T02:24:24.467Z,87.09
2023-04-29T02:26:51.099Z,85.32
2023-04-29T02:29:17.698Z,83.80
2023-04-29T02:31:44.398Z,83.62
2023-04-29T02:34:10.989Z,83.36
2023-04-29T02:36:37.621Z,81.06
2023-04-29T02:39:04.485Z,81.62
2023-04-29T02:41:31.064Z,81.82
2023-04-29T02:43:58.288Z,80.10
2023-04-29T02:46:24.938Z,80.00
2023-04-29T02:48:51.530Z,79.83
2023-04-29T02:51:18.111Z,79.95
2023-04-29T02:53:44.637Z,79.03
2023-04-29T02:56:11.653Z,79.17
2023-04-29T02:58:38.225Z,78.02
2023-04-29T03:01:04.981Z,78.22
2023-04-29T03:03:32.047Z,77.57
2023-04-29T03:05:58.789Z,77.82
2023-04-29T03:08:25.312Z,77.50
2023-04-29T03:10:51.930Z,77.42
2023-04-29T03:13:18.536Z,76.28
2023-04-29T03:15:45.240Z,77.13
2023-04-29T03:18:11.897Z,76.67
2023-04-29T03:20:38.486Z,75.93
2023-04-29T03:23:05.356Z,74.56
2023-04-29T03:25:32.022Z,75.23
2023-04-29T03:27:58.593Z,74.62
2023-04-29T03:30:25.275Z,74.05
2023-04-29T03:32:51.840Z,73.47
2023-04-29T03:35:18.556Z,72.13
2023-04-29T03:37:45.174Z,72.81
2023-04-29T03:40:12.730Z,72.92
2023-04-29T03:42:39.401Z,74.11
2023-04-29T03:45:06.987Z,72.19
2023-04-29T03:47:33.649Z,72.85
2023-04-29T03:50:00.216Z,72.50
2023-04-29T03:52:27.245Z,73.04
2023-04-29T03:54:53.829Z,72.40
2023-04-29T03:57:20.410Z,73.89
2023-04-29T03:59:50.552Z,72.84
2023-04-29T04:02:17.578Z,70.92
2023-04-29T04:04:44.567Z,71.44
2023-04-29T04:07:11.704Z,70.62
2023-04-29T04:09:38.632Z,73.16
2023-04-29T04:12:06.400Z,74.41
2023-04-29T04:14:33.031Z,72.99
2023-04-29T04:16:59.573Z,74.08
2023-04-29T04:19:27.117Z,73.30
2023-04-29T04:21:53.756Z,72.47
2023-04-29T04:24:20.420Z,73.07
2023-04-29T04:26:46.973Z,73.32
2023-04-29T04:29:13.545Z,72.94
2023-04-29T04:31:40.446Z,73.06
2023-04-29T04:34:07.026Z,74.13
2023-04-29T04:36:33.657Z,73.45
2023-04-29T04:39:00.298Z,72.79
2023-04-29T04:41:27.056Z,73.18
2023-04-29T04:43:53.665Z,72.21
2023-04-29T04:46:20.271Z,73.24
2023-04-29T04:48:46.952Z,72.58
2023-04-29T04:51:14.037Z,71.42
2023-04-29T04:53:40.968Z,70.79
2023-04-29T04:56:08.382Z,72.13
2023-04-29T04:58:34.984Z,71.50
2023-04-29T05:01:01.613Z,71.15
2023-04-29T05:03:28.624Z,71.33
2023-04-29T05:05:56.741Z,72.44
2023-04-29T05:08:23.439Z,72.99
2023-04-29T05:10:50.335Z,73.12
2023-04-29T05:13:17.089Z,72.44
2023-04-29T05:15:44.636Z,72.44
2023-04-29T05:18:11.824Z,71.05
2023-04-29T05:20:38.465Z,68.57
2023-04-29T05:23:05.096Z,69.29
2023-04-29T05:25:31.746Z,68.58
2023-04-29T05:27:58.313Z,68.83
2023-04-29T05:30:24.890Z,67.83
2023-04-29T05:32:51.711Z,69.65
2023-04-29T05:35:18.482Z,69.67
2023-04-29T05:37:45.056Z,69.74
2023-04-29T05:40:11.937Z,69.82
2023-04-29T05:42:38.538Z,68.59
2023-04-29T05:45:05.763Z,69.54
2023-04-29T05:47:32.394Z,68.04
2023-04-29T05:49:59.248Z,68.25
2023-04-29T05:52:25.917Z,67.56
2023-04-29T05:54:52.539Z,67.83
2023-04-29T05:57:19.133Z,67.37
2023-04-29T05:59:45.707Z,67.06
2023-04-29T06:02:12.525Z,66.51
2023-04-29T06:04:41.589Z,66.38
2023-04-29T06:07:09.339Z,65.52
2023-04-29T06:09:36.921Z,65.82
2023-04-29T06:12:04.467Z,65.49
2023-04-29T06:14:31.024Z,63.95
2023-04-29T06:16:57.872Z,64.12
2023-04-29T06:19:25.362Z,61.09
2023-04-29T06:21:52.063Z,58.37
2023-04-29T06:24:18.666Z,58.74
2023-04-29T06:26:45.610Z,60.16
2023-04-29T06:29:12.463Z,58.89
2023-04-29T06:31:39.101Z,62.30
2023-04-29T06:34:05.995Z,60.57
2023-04-29T06:36:33.059Z,60.43
2023-04-29T06:38:59.694Z,59.05
2023-04-29T06:41:27.329Z,58.84
2023-04-29T06:43:54.121Z,61.64
2023-04-29T06:46:20.723Z,59.07
2023-04-29T06:48:47.598Z,58.00
2023-04-29T06:51:14.146Z,60.32
2023-04-29T06:53:40.768Z,56.53
2023-04-29T06:56:07.845Z,57.81
2023-04-29T06:58:34.487Z,58.76
2023-04-29T07:01:01.401Z,57.00
2023-04-29T07:03:28.140Z,57.93
2023-04-29T07:05:54.793Z,59.15
2023-04-29T07:08:21.340Z,59.66
2023-04-29T07:10:58.070Z,61.02
2023-04-29T07:13:25.421Z,61.46
2023-04-29T07:15:52.203Z,59.83
2023-04-29T07:18:18.863Z,60.18
2023-04-29T07:20:46.128Z,59.63
2023-04-29T07:23:12.894Z,60.32
2023-04-29T07:25:39.481Z,60.02
2023-04-29T07:28:06.039Z,57.95
2023-04-29T07:30:32.648Z,56.77
2023-04-29T07:32:59.188Z,56.15
2023-04-29T07:35:25.855Z,55.87
2023-04-29T07:37:52.480Z,57.08
2023-04-29T07:40:19.093Z,58.44
2023-04-29T07:42:45.810Z,55.96
2023-04-29T07:45:13.911Z,57.87
2023-04-29T07:47:40.636Z,56.95
2023-04-29T07:50:07.689Z,57.01
2023-04-29T07:52:34.857Z,56.22
2023-04-29T07:55:01.990Z,57.96
2023-04-29T07:57:28.528Z,55.85
2023-04-29T07:59:55.497Z,54.29
2023-04-29T08:02:22.211Z,53.97
2023-04-29T08:04:51.374Z,54.24
2023-04-29T08:07:18.531Z,51.65
2023-04-29T08:09:45.239Z,51.32
2023-04-29T08:12:11.852Z,51.84
2023-04-29T08:14:38.528Z,53.18
2023-04-29T08:17:05.050Z,51.78
2023-04-29T08:19:32.945Z,53.12
2023-04-29T08:22:01.126Z,52.97
2023-04-29T08:24:29.161Z,52.79
2023-04-29T08:26:56.772Z,53.10
2023-04-29T08:29:23.413Z,50.84
2023-04-29T08:31:50.750Z,51.24
2023-04-29T08:34:17.410Z,52.82
2023-04-29T08:36:43.963Z,52.62
2023-04-29T08:39:10.538Z,48.62
2023-04-29T08:41:37.562Z,49.28
2023-04-29T08:44:04.227Z,50.83
2023-04-29T08:46:31.861Z,49.26
2023-04-29T08:48:59.593Z,48.93
2023-04-29T08:51:26.664Z,48.96
2023-04-29T08:53:53.305Z,47.96
2023-04-29T08:56:23.214Z,47.56
2023-04-29T08:58:58.949Z,46.79
2023-04-29T09:01:28.798Z,44.50
2023-04-29T09:04:26.383Z,45.98
2023-04-29T09:06:56.281Z,45.36
2023-04-29T09:09:25.183Z,46.77
2023-04-29T09:11:52.176Z,44.36
2023-04-29T09:14:20.538Z,45.28
2023-04-29T09:16:47.735Z,44.29
2023-04-29T09:19:35.671Z,43.24
2023-04-29T09:22:03.972Z,44.83
2023-04-29T09:24:31.790Z,44.14
2023-04-29T09:26:59.869Z,43.62
2023-04-29T09:29:26.804Z,43.31
2023-04-29T09:31:53.757Z,43.91
2023-04-29T09:34:36.037Z,44.34
2023-04-29T09:37:02.622Z,42.88
2023-04-29T09:39:38.921Z,42.88
2023-04-29T09:42:06.271Z,42.63
2023-04-29T09:44:37.993Z,42.49
2023-04-29T09:47:05.593Z,39.09
2023-04-29T09:49:38.830Z,41.25
2023-04-29T09:52:08.129Z,41.47
2023-04-29T09:54:39.220Z,40.85
2023-04-29T09:57:08.132Z,41.43
2023-04-29T09:59:36.649Z,39.54
2023-04-29T10:02:10.357Z,40.13
2023-04-29T10:04:40.529Z,42.34
2023-04-29T10:07:08.624Z,39.41
2023-04-29T10:09:39.005Z,39.29
2023-04-29T10:12:07.742Z,40.19
2023-04-29T10:14:43.793Z,40.89
2023-04-29T10:17:42.369Z,41.11
2023-04-29T10:20:12.586Z,40.94
2023-04-29T10:22:48.975Z,39.63
2023-04-29T10:25:18.423Z,40.81
2023-04-29T10:27:46.618Z,39.59
2023-04-29T10:30:14.778Z,40.62
2023-04-29T10:32:50.539Z,40.63
2023-04-29T10:35:20.267Z,40.71
2023-04-29T10:37:48.999Z,40.68
2023-04-29T10:40:29.134Z,39.32
2023-04-29T10:42:55.857Z,40.55
2023-04-29T10:45:31.739Z,40.80
2023-04-29T10:48:08.717Z,39.68
2023-04-29T10:50:47.470Z,38.73
2023-04-29T10:53:22.297Z,38.75
2023-04-29T10:55:54.119Z,36.47
2023-04-29T10:58:43.888Z,36.92
2023-04-29T11:01:12.735Z,34.30
2023-04-29T11:03:50.711Z,34.92
2023-04-29T11:06:17.591Z,35.95
2023-04-29T11:08:44.944Z,35.20
2023-04-29T11:11:14.027Z,32.95
2023-04-29T11:13:40.950Z,33.40
2023-04-29T11:16:29.778Z,34.47
2023-04-29T11:19:24.176Z,36.16
2023-04-29T11:22:04.669Z,34.62
2023-04-29T11:24:31.448Z,35.40
2023-04-29T11:27:04.328Z,35.76
2023-04-29T11:29:33.590Z,33.81
2023-04-29T11:32:01.962Z,33.63
2023-04-29T11:34:28.621Z,33.37
2023-04-29T11:36:55.269Z,31.93
2023-04-29T11:39:21.839Z,33.46
2023-04-29T11:41:52.440Z,35.17
2023-04-29T11:44:25.068Z,34.39
2023-04-29T11:46:51.622Z,33.81
2023-04-29T11:49:18.560Z,34.06
2023-04-29T11:51:45.164Z,33.93
2023-04-29T11:54:12.095Z,35.29
2023-04-29T11:56:38.795Z,32.81
2023-04-29T11:59:08.113Z,33.46
2023-04-29T12:01:36.091Z,35.78
2023-04-29T12:04:03.406Z,34.21
2023-04-29T12:06:31.157Z,34.21
2023-04-29T12:09:01.220Z,34.93
2023-04-29T12:11:28.953Z,33.15
2023-04-29T12:13:56.731Z,32.00
2023-04-29T12:16:29.301Z,31.14
2023-04-29T12:18:56.383Z,32.72
2023-04-29T12:21:22.972Z,33.38
2023-04-29T12:23:51.510Z,34.44
2023-04-29T12:26:19.326Z,33.14
2023-04-29T12:28:46.291Z,30.98
2023-04-29T12:31:15.599Z,30.46
2023-04-29T12:33:45.494Z,33.19
2023-04-29T12:36:19.190Z,33.93
2023-04-29T12:38:47.710Z,32.03
2023-04-29T12:41:17.363Z,31.58
2023-04-29T12:43:44.475Z,31.79
2023-04-29T12:46:14.800Z,29.31
2023-04-29T12:48:43.523Z,31.63
2023-04-29T12:51:11.642Z,30.34
2023-04-29T12:53:39.214Z,31.38
2023-04-29T12:56:06.764Z,29.87
2023-04-29T12:58:34.905Z,29.43
2023-04-29T13:01:01.773Z,28.16
2023-04-29T13:03:28.625Z,28.81
2023-04-29T13:05:55.963Z,28.47
2023-04-29T13:08:23.123Z,28.88
2023-04-29T13:10:49.931Z,27.34
2023-04-29T13:13:16.742Z,29.01
2023-04-29T13:15:43.396Z,29.09
2023-04-29T13:18:09.951Z,27.57
2023-04-29T13:20:41.539Z,28.73
2023-04-29T13:23:09.342Z,28.59
2023-04-29T13:25:36.082Z,28.41
2023-04-29T13:28:02.791Z,29.38
2023-04-29T13:30:29.413Z,30.82
2023-04-29T13:32:59.935Z,28.68
2023-04-29T13:35:29.812Z,29.12
2023-04-29T13:37:57.504Z,30.70
2023-04-29T13:40:27.793Z,31.07
2023-04-29T13:43:02.231Z,27.73
2023-04-29T13:45:39.046Z,26.61
2023-04-29T13:48:16.831Z,27.60
2023-04-29T13:53:52.419Z,25.71
2023-04-29T13:59:19.620Z,22.95
2023-04-29T14:02:13.954Z,24.48
2023-04-29T14:04:11.925Z,27.17
2023-04-29T14:06:38.962Z,27.94
2023-04-29T14:09:06.085Z,27.25
2023-04-29T14:11:36.588Z,28.03
2023-04-29T14:14:04.043Z,28.59
2023-04-29T14:16:30.763Z,28.40
2023-04-29T14:18:57.643Z,28.99
2023-04-29T14:21:24.347Z,28.73
2023-04-29T14:23:51.013Z,27.88
2023-04-29T14:26:27.999Z,27.37
2023-04-29T14:28:59.469Z,26.92
2023-04-29T14:31:30.258Z,29.67
2023-04-29T14:33:58.326Z,29.71
2023-04-29T14:36:26.631Z,31.00
2023-04-29T14:38:53.221Z,29.93
2023-04-29T14:41:21.812Z,30.57
2023-04-29T14:43:48.500Z,30.07
2023-04-29T14:46:15.249Z,32.95
2023-04-29T14:48:41.960Z,31.34
2023-04-29T14:51:08.797Z,32.10
2023-04-29T14:53:37.835Z,33.57
2023-04-29T14:56:04.770Z,32.47
2023-04-29T14:58:31.445Z,34.56
2023-04-29T15:00:58.101Z,34.42
2023-04-29T15:03:24.977Z,32.15
2023-04-29T15:05:51.969Z,31.83
2023-04-29T15:08:19.526Z,31.82
2023-04-29T15:10:50.179Z,34.07
2023-04-29T15:13:17.050Z,32.38
2023-04-29T15:15:43.739Z,30.94
2023-04-29T15:18:10.371Z,30.10
2023-04-29T15:20:37.713Z,29.36
2023-04-29T15:23:05.733Z,29.22
2023-04-29T15:25:34.608Z,30.35
2023-04-29T15:28:03.884Z,33.39
2023-04-29T15:30:30.603Z,32.30
2023-04-29T15:32:57.265Z,33.30
2023-04-29T15:35:23.857Z,33.46
2023-04-29T15:37:50.612Z,31.90
2023-04-29T15:40:17.700Z,31.12
2023-04-29T15:42:44.572Z,32.56
2023-04-29T15:45:11.681Z,29.92
2023-04-29T15:47:38.695Z,29.07
2023-04-29T15:50:05.955Z,29.88
2023-04-29T15:52:32.590Z,31.03
2023-04-29T15:54:59.296Z,32.39
2023-04-29T15:57:26.191Z,30.92
2023-04-29T15:59:53.096Z,32.59
2023-04-29T16:02:21.133Z,32.81
2023-04-29T16:04:48.028Z,30.20
2023-04-29T16:07:14.774Z,31.24
2023-04-29T16:09:41.570Z,30.47
2023-04-29T16:12:08.603Z,31.09
2023-04-29T16:14:35.201Z,29.71
2023-04-29T16:17:02.148Z,30.36
2023-04-29T16:19:29.041Z,30.02
2023-04-29T16:21:55.891Z,29.35
2023-04-29T16:24:22.821Z,28.71
2023-04-29T16:26:50.783Z,28.22
2023-04-29T16:29:18.358Z,28.34
2023-04-29T16:31:45.366Z,27.91
2023-04-29T16:34:12.435Z,27.56
2023-04-29T16:36:39.430Z,27.08
2023-04-29T16:39:06.290Z,27.19
2023-04-29T16:41:33.148Z,28.01
2023-04-29T16:43:59.916Z,28.50
2023-04-29T16:46:26.660Z,29.65
2023-04-29T16:48:56.762Z,29.40
2023-04-29T16:51:29.186Z,32.06
2023-04-29T16:53:55.805Z,31.75
2023-04-29T16:56:22.677Z,33.31
2023-04-29T16:58:49.355Z,34.89
2023-04-29T17:01:16.448Z,34.29
2023-04-29T17:03:43.140Z,36.01
2023-04-29T17:06:10.006Z,34.96
2023-04-29T17:08:36.863Z,35.53
2023-04-29T17:11:04.922Z,36.54
2023-04-29T17:13:31.913Z,36.39
2023-04-29T17:15:58.570Z,37.12
2023-04-29T17:18:25.170Z,38.27
2023-04-29T17:20:51.786Z,37.85
2023-04-29T17:23:18.396Z,38.03
2023-04-29T17:25:45.225Z,37.50
2023-04-29T17:28:11.899Z,38.26
2023-04-29T17:30:38.602Z,39.76
2023-04-29T17:33:07.859Z,39.37
2023-04-29T17:35:35.342Z,40.20
2023-04-29T17:38:02.063Z,41.51
2023-04-29T17:40:28.732Z,41.23
2023-04-29T17:42:55.432Z,41.26
2023-04-29T17:45:22.023Z,42.54
2023-04-29T17:47:48.685Z,42.13
2023-04-29T17:50:15.398Z,43.81
2023-04-29T17:52:42.606Z,44.07
2023-04-29T17:55:10.438Z,43.22
2023-04-29T17:57:38.233Z,43.21
2023-04-29T18:00:08.549Z,44.47
2023-04-29T18:02:35.300Z,44.99
2023-04-29T18:05:03.487Z,45.93
2023-04-29T18:07:32.858Z,46.21
2023-04-29T18:09:59.487Z,46.24
2023-04-29T18:12:26.215Z,48.07
2023-04-29T18:14:52.882Z,47.51
2023-04-29T18:17:19.873Z,46.76
2023-04-29T18:19:48.661Z,47.23
2023-04-29T18:22:16.053Z,47.66
2023-04-29T18:24:42.700Z,47.62
2023-04-29T18:27:09.293Z,46.96
2023-04-29T18:29:35.906Z,47.85
2023-04-29T18:32:03.448Z,48.89
2023-04-29T18:34:31.099Z,49.43
2023-04-29T18:36:57.637Z,50.30
2023-04-29T18:39:24.276Z,50.84
2023-04-29T18:41:51.036Z,51.05
2023-04-29T18:44:17.693Z,51.12
2023-04-29T18:46:44.365Z,52.23
2023-04-29T18:49:16.072Z,51.98
2023-04-29T18:51:46.761Z,52.79
2023-04-29T18:54:18.422Z,52.17
2023-04-29T18:56:49.430Z,52.46
2023-04-29T18:59:19.009Z,53.94
2023-04-29T19:01:47.026Z,54.48
2023-04-29T19:04:14.239Z,53.34
2023-04-29T19:06:41.924Z,53.70
2023-04-29T19:09:08.819Z,55.38
2023-04-29T19:11:35.426Z,56.03
2023-04-29T19:14:03.978Z,54.99
2023-04-29T19:16:30.576Z,55.76
2023-04-29T19:18:58.452Z,54.95
2023-04-29T19:21:25.069Z,56.36
2023-04-29T19:23:53.184Z,56.89
2023-04-29T19:26:19.726Z,56.63
2023-04-29T19:28:46.415Z,58.74
2023-04-29T19:31:13.065Z,58.97
2023-04-29T19:33:39.669Z,57.99
2023-04-29T19:36:06.218Z,58.41
2023-04-29T19:38:32.872Z,59.21
2023-04-29T19:40:59.993Z,58.95
2023-04-29T19:43:26.615Z,59.55
2023-04-29T19:45:53.209Z,61.37
2023-04-29T19:48:19.939Z,61.45
2023-04-29T19:50:46.485Z,62.60
2023-04-29T19:53:13.236Z,61.95
2023-04-29T19:55:40.224Z,62.66
2023-04-29T19:58:07.218Z,62.48
2023-04-29T20:00:34.226Z,62.94
2023-04-29T20:03:00.896Z,63.78
2023-04-29T20:05:28.418Z,66.18
2023-04-29T20:07:56.014Z,66.55
2023-04-29T20:10:22.775Z,67.64
2023-04-29T20:12:49.519Z,65.74
2023-04-29T20:15:16.478Z,65.91
2023-04-29T20:17:43.197Z,66.79
2023-04-29T20:20:10.575Z,66.53
2023-04-29T20:22:37.317Z,65.78
2023-04-29T20:25:04.444Z,66.46
2023-04-29T20:27:31.269Z,67.56
2023-04-29T20:29:57.864Z,65.56
2023-04-29T20:32:24.713Z,65.36
2023-04-29T20:34:51.737Z,67.31
2023-04-29T20:37:19.862Z,67.64
2023-04-29T20:39:47.106Z,67.84
2023-04-29T20:42:13.739Z,68.80
2023-04-29T20:44:40.845Z,68.54
2023-04-29T20:47:07.407Z,68.07
2023-04-29T20:49:33.961Z,67.77
2023-04-29T20:52:01.009Z,68.34
2023-04-29T20:54:27.617Z,68.54
2023-04-29T20:56:54.147Z,69.09
2023-04-29T20:59:20.752Z,69.61
2023-04-29T21:01:47.511Z,71.56
2023-04-29T21:04:14.361Z,71.02
2023-04-29T21:06:41.482Z,70.61
2023-04-29T21:09:09.026Z,70.63
2023-04-29T21:11:35.660Z,71.08
2023-04-29T21:14:02.888Z,71.61
2023-04-29T21:16:29.468Z,74.04
2023-04-29T21:18:56.419Z,74.68
2023-04-29T21:21:23.292Z,75.56
2023-04-29T21:23:49.882Z,75.08
2023-04-29T21:26:16.439Z,74.02
2023-04-29T21:28:43.022Z,74.40
2023-04-29T21:31:15.304Z,75.08
2023-04-29T21:33:46.246Z,74.00
2023-04-29T21:36:13.731Z,73.94
2023-04-29T21:38:42.673Z,75.16
2023-04-29T21:41:26.546Z,75.52
2023-04-29T21:43:55.094Z,74.82
2023-04-29T21:46:21.868Z,74.86
2023-04-29T21:48:49.071Z,74.87
2023-04-29T21:51:15.708Z,75.81
2023-04-29T21:53:43.060Z,75.40
2023-04-29T21:56:09.674Z,75.49
2023-04-29T21:58:36.398Z,75.52
2023-04-29T22:01:05.611Z,76.94
2023-04-29T22:03:32.282Z,77.52
2023-04-29T22:05:59.078Z,77.17
2023-04-29T22:08:25.735Z,78.61
2023-04-29T22:10:52.343Z,77.06
2023-04-29T22:13:18.975Z,76.49
2023-04-29T22:15:45.553Z,76.55
2023-04-29T22:18:12.257Z,76.55
2023-04-29T22:20:38.897Z,76.99
2023-04-29T22:23:05.732Z,76.97
2023-04-29T22:25:32.469Z,76.87
2023-04-29T22:27:59.191Z,77.34
2023-04-29T22:30:25.725Z,77.79
2023-04-29T22:32:52.357Z,78.65
2023-04-29T22:35:18.934Z,79.36
2023-04-29T22:37:45.614Z,78.13
2023-04-29T22:40:12.965Z,77.77
2023-04-29T22:42:41.910Z,77.78
2023-04-29T22:45:10.231Z,78.32
2023-04-29T22:47:36.920Z,77.65
2023-04-29T22:50:03.751Z,77.28
2023-04-29T22:52:32.743Z,78.04
2023-04-29T22:54:59.850Z,78.41
2023-04-29T22:57:26.396Z,78.39
2023-04-29T22:59:56.950Z,77.72
2023-04-29T23:02:29.012Z,77.22
2023-04-29T23:04:56.649Z,76.61
2023-04-29T23:07:24.070Z,76.90
2023-04-29T23:09:51.446Z,77.91
2023-04-29T23:12:18.669Z,79.05
2023-04-29T23:14:45.443Z,78.69
2023-04-29T23:17:12.277Z,78.94
2023-04-29T23:19:38.936Z,79.99
2023-04-29T23:22:08.369Z,79.62
2023-04-29T23:24:35.590Z,79.60
2023-04-29T23:27:05.123Z,79.38
2023-04-29T23:29:34.037Z,77.94
2023-04-29T23:32:01.272Z,78.20
2023-04-29T23:34:27.936Z,79.93
2023-04-29T23:36:54.537Z,79.06
2023-04-29T23:39:21.125Z,79.22
2023-04-29T23:41:47.711Z,78.93
2023-04-29T23:44:14.266Z,78.01
2023-04-29T23:46:40.927Z,78.24
2023-04-29T23:49:07.553Z,78.93
2023-04-29T23:51:34.132Z,80.47
2023-04-29T23:54:00.889Z,79.23
2023-04-29T23:56:29.185Z,79.48
2023-04-29T23:58:55.843Z,79.19
